sensor_id;sensor_type;location;lat;lon;timestamp;P1;durP1;ratioP1;P2;durP2;ratioP2
47960;SDS011;33721;48.852;9.936;2022-09-27T00:00:04;2.35;;;0.77;;
47960;SDS011;33721;48.852;9.936;2022-09-27T00:02:30;1.88;;;0.95;;
47960;SDS011;33721;48.852;9.936;2022-09-27T00:04:56;2.13;;;1.30;;
47960;SDS011;33721;48.852;9.936;2022-09-27T00:07:22;2.22;;;1.15;;
47960;SDS011;33721;48.852;9.936;2022-09-27T00:09:48;2.35;;;1.20;;
47960;SDS011;33721;48.852;9.936;2022-09-27T00:12:14;2.95;;;1.15;;
47960;SDS011;33721;48.852;9.936;2022-09-27T00:14:40;3.55;;;1.13;;
47960;SDS011;33721;48.852;9.936;2022-09-27T00:17:05;3.55;;;1.00;;
47960;SDS011;33721;48.852;9.936;2022-09-27T00:19:31;3.63;;;1.00;;
47960;SDS011;33721;48.852;9.936;2022-09-27T00:21:57;9.40;;;1.38;;
47960;SDS011;33721;48.852;9.936;2022-09-27T00:24:25;5.03;;;1.05;;
47960;SDS011;33721;48.852;9.936;2022-09-27T00:26:51;2.67;;;1.02;;
47960;SDS011;33721;48.852;9.936;2022-09-27T00:29:17;2.78;;;1.20;;
47960;SDS011;33721;48.852;9.936;2022-09-27T00:31:43;4.43;;;1.05;;
47960;SDS011;33721;48.852;9.936;2022-09-27T00:34:15;5.82;;;0.93;;
47960;SDS011;33721;48.852;9.936;2022-09-27T00:36:47;2.33;;;0.90;;
47960;SDS011;33721;48.852;9.936;2022-09-27T00:39:13;4.93;;;1.02;;
47960;SDS011;33721;48.852;9.936;2022-09-27T00:41:39;3.15;;;1.13;;
47960;SDS011;33721;48.852;9.936;2022-09-27T00:46:52;2.97;;;1.20;;
47960;SDS011;33721;48.852;9.936;2022-09-27T00:49:29;2.60;;;1.08;;
47960;SDS011;33721;48.852;9.936;2022-09-27T00:52:00;3.72;;;1.30;;
47960;SDS011;33721;48.852;9.936;2022-09-27T00:54:28;1.88;;;1.25;;
47960;SDS011;33721;48.852;9.936;2022-09-27T00:56:56;4.10;;;1.42;;
47960;SDS011;33721;48.852;9.936;2022-09-27T00:59:32;2.25;;;1.17;;
47960;SDS011;33721;48.852;9.936;2022-09-27T01:02:04;3.65;;;1.25;;
47960;SDS011;33721;48.852;9.936;2022-09-27T01:04:32;2.03;;;1.10;;
47960;SDS011;33721;48.852;9.936;2022-09-27T01:07:00;2.50;;;1.02;;
47960;SDS011;33721;48.852;9.936;2022-09-27T01:09:26;3.25;;;1.20;;
47960;SDS011;33721;48.852;9.936;2022-09-27T01:11:53;4.22;;;1.13;;
47960;SDS011;33721;48.852;9.936;2022-09-27T01:22:37;1.75;;;0.90;;
47960;SDS011;33721;48.852;9.936;2022-09-27T01:30:52;1.73;;;0.90;;
47960;SDS011;33721;48.852;9.936;2022-09-27T01:41:26;1.60;;;0.75;;
47960;SDS011;33721;48.852;9.936;2022-09-27T01:44:16;1.20;;;0.80;;
47960;SDS011;33721;48.852;9.936;2022-09-27T01:47:14;2.08;;;0.80;;
47960;SDS011;33721;48.852;9.936;2022-09-27T01:52:37;2.70;;;0.80;;
47960;SDS011;33721;48.852;9.936;2022-09-27T01:55:17;2.55;;;0.63;;
47960;SDS011;33721;48.852;9.936;2022-09-27T01:57:54;1.25;;;0.70;;
47960;SDS011;33721;48.852;9.936;2022-09-27T02:00:29;2.25;;;0.60;;
47960;SDS011;33721;48.852;9.936;2022-09-27T02:02:59;2.90;;;0.88;;
47960;SDS011;33721;48.852;9.936;2022-09-27T02:05:32;3.22;;;0.82;;
47960;SDS011;33721;48.852;9.936;2022-09-27T02:08:06;5.70;;;0.82;;
47960;SDS011;33721;48.852;9.936;2022-09-27T02:10:44;1.88;;;1.00;;
47960;SDS011;33721;48.852;9.936;2022-09-27T02:13:14;1.13;;;0.40;;
47960;SDS011;33721;48.852;9.936;2022-09-27T02:15:57;2.67;;;0.57;;
47960;SDS011;33721;48.852;9.936;2022-09-27T02:21:30;1.73;;;0.60;;
47960;SDS011;33721;48.852;9.936;2022-09-27T02:24:05;0.70;;;0.50;;
47960;SDS011;33721;48.852;9.936;2022-09-27T02:26:38;1.38;;;0.90;;
47960;SDS011;33721;48.852;9.936;2022-09-27T02:29:07;4.53;;;0.60;;
47960;SDS011;33721;48.852;9.936;2022-09-27T02:31:42;3.35;;;0.85;;
47960;SDS011;33721;48.852;9.936;2022-09-27T02:34:10;2.10;;;0.65;;
47960;SDS011;33721;48.852;9.936;2022-09-27T02:36:42;1.45;;;0.50;;
47960;SDS011;33721;48.852;9.936;2022-09-27T02:39:08;3.08;;;0.57;;
47960;SDS011;33721;48.852;9.936;2022-09-27T02:41:35;0.80;;;0.40;;
47960;SDS011;33721;48.852;9.936;2022-09-27T02:44:02;1.02;;;0.60;;
47960;SDS011;33721;48.852;9.936;2022-09-27T02:49:42;1.42;;;0.63;;
47960;SDS011;33721;48.852;9.936;2022-09-27T03:00:48;1.15;;;0.55;;
47960;SDS011;33721;48.852;9.936;2022-09-27T03:06:16;1.00;;;0.50;;
47960;SDS011;33721;48.852;9.936;2022-09-27T03:08:45;1.88;;;0.45;;
47960;SDS011;33721;48.852;9.936;2022-09-27T03:11:11;0.77;;;0.43;;
47960;SDS011;33721;48.852;9.936;2022-09-27T03:13:36;1.08;;;0.60;;
47960;SDS011;33721;48.852;9.936;2022-09-27T03:16:06;1.48;;;0.50;;
47960;SDS011;33721;48.852;9.936;2022-09-27T03:18:32;1.63;;;0.47;;
47960;SDS011;33721;48.852;9.936;2022-09-27T03:20:58;1.48;;;0.50;;
47960;SDS011;33721;48.852;9.936;2022-09-27T03:23:24;1.20;;;0.40;;
47960;SDS011;33721;48.852;9.936;2022-09-27T03:25:50;1.92;;;0.43;;
47960;SDS011;33721;48.852;9.936;2022-09-27T03:28:16;0.77;;;0.40;;
47960;SDS011;33721;48.852;9.936;2022-09-27T03:30:45;0.75;;;0.43;;
47960;SDS011;33721;48.852;9.936;2022-09-27T03:33:11;1.73;;;0.63;;
47960;SDS011;33721;48.852;9.936;2022-09-27T03:35:38;1.77;;;0.50;;
47960;SDS011;33721;48.852;9.936;2022-09-27T03:38:04;1.48;;;0.50;;
47960;SDS011;33721;48.852;9.936;2022-09-27T03:40:31;1.00;;;0.50;;
47960;SDS011;33721;48.852;9.936;2022-09-27T03:42:57;7.18;;;0.75;;
47960;SDS011;33721;48.852;9.936;2022-09-27T03:45:23;1.00;;;0.50;;
47960;SDS011;33721;48.852;9.936;2022-09-27T03:47:48;2.63;;;0.60;;
47960;SDS011;33721;48.852;9.936;2022-09-27T03:50:14;1.75;;;0.70;;
47960;SDS011;33721;48.852;9.936;2022-09-27T03:52:41;1.52;;;0.60;;
47960;SDS011;33721;48.852;9.936;2022-09-27T03:55:07;2.60;;;0.60;;
47960;SDS011;33721;48.852;9.936;2022-09-27T03:57:34;2.30;;;0.60;;
47960;SDS011;33721;48.852;9.936;2022-09-27T03:59:59;2.35;;;0.60;;
47960;SDS011;33721;48.852;9.936;2022-09-27T04:02:26;1.50;;;0.80;;
47960;SDS011;33721;48.852;9.936;2022-09-27T04:04:52;1.65;;;0.70;;
47960;SDS011;33721;48.852;9.936;2022-09-27T04:07:18;1.88;;;0.73;;
47960;SDS011;33721;48.852;9.936;2022-09-27T04:09:44;2.13;;;0.98;;
47960;SDS011;33721;48.852;9.936;2022-09-27T04:12:11;3.65;;;0.93;;
47960;SDS011;33721;48.852;9.936;2022-09-27T04:14:37;4.38;;;1.23;;
47960;SDS011;33721;48.852;9.936;2022-09-27T04:17:03;3.05;;;1.20;;
47960;SDS011;33721;48.852;9.936;2022-09-27T04:19:28;2.42;;;0.85;;
47960;SDS011;33721;48.852;9.936;2022-09-27T04:21:54;2.83;;;0.95;;
47960;SDS011;33721;48.852;9.936;2022-09-27T04:24:20;2.40;;;0.73;;
47960;SDS011;33721;48.852;9.936;2022-09-27T04:26:45;2.60;;;1.00;;
47960;SDS011;33721;48.852;9.936;2022-09-27T04:29:11;2.22;;;0.90;;
47960;SDS011;33721;48.852;9.936;2022-09-27T04:31:37;1.95;;;0.70;;
47960;SDS011;33721;48.852;9.936;2022-09-27T04:34:03;3.78;;;1.02;;
47960;SDS011;33721;48.852;9.936;2022-09-27T04:36:29;2.22;;;0.90;;
47960;SDS011;33721;48.852;9.936;2022-09-27T04:38:56;1.80;;;0.77;;
47960;SDS011;33721;48.852;9.936;2022-09-27T04:41:23;4.70;;;1.30;;
47960;SDS011;33721;48.852;9.936;2022-09-27T04:43:50;4.70;;;1.10;;
47960;SDS011;33721;48.852;9.936;2022-09-27T04:46:17;4.28;;;1.17;;
47960;SDS011;33721;48.852;9.936;2022-09-27T04:48:43;4.32;;;1.00;;
47960;SDS011;33721;48.852;9.936;2022-09-27T04:51:09;2.10;;;0.90;;
47960;SDS011;33721;48.852;9.936;2022-09-27T04:53:41;3.72;;;1.17;;
47960;SDS011;33721;48.852;9.936;2022-09-27T04:56:07;4.68;;;1.05;;
47960;SDS011;33721;48.852;9.936;2022-09-27T04:58:33;6.00;;;1.30;;
47960;SDS011;33721;48.852;9.936;2022-09-27T05:00:59;2.03;;;0.85;;
47960;SDS011;33721;48.852;9.936;2022-09-27T05:03:27;3.75;;;1.02;;
47960;SDS011;33721;48.852;9.936;2022-09-27T05:05:53;3.47;;;1.05;;
47960;SDS011;33721;48.852;9.936;2022-09-27T05:08:19;5.88;;;1.20;;
47960;SDS011;33721;48.852;9.936;2022-09-27T05:10:45;4.95;;;1.35;;
47960;SDS011;33721;48.852;9.936;2022-09-27T05:13:12;2.38;;;1.02;;
47960;SDS011;33721;48.852;9.936;2022-09-27T05:15:38;9.77;;;1.55;;
47960;SDS011;33721;48.852;9.936;2022-09-27T05:18:05;3.40;;;1.17;;
47960;SDS011;33721;48.852;9.936;2022-09-27T05:20:32;8.68;;;1.58;;
47960;SDS011;33721;48.852;9.936;2022-09-27T05:22:58;6.45;;;1.92;;
47960;SDS011;33721;48.852;9.936;2022-09-27T05:25:25;5.65;;;1.40;;
47960;SDS011;33721;48.852;9.936;2022-09-27T05:27:50;6.50;;;2.00;;
47960;SDS011;33721;48.852;9.936;2022-09-27T05:30:16;5.70;;;1.60;;
47960;SDS011;33721;48.852;9.936;2022-09-27T05:32:42;5.43;;;1.20;;
47960;SDS011;33721;48.852;9.936;2022-09-27T05:35:09;4.07;;;1.40;;
47960;SDS011;33721;48.852;9.936;2022-09-27T05:37:35;10.80;;;1.48;;
47960;SDS011;33721;48.852;9.936;2022-09-27T05:40:01;9.48;;;2.10;;
47960;SDS011;33721;48.852;9.936;2022-09-27T05:42:27;7.88;;;1.60;;
47960;SDS011;33721;48.852;9.936;2022-09-27T05:44:53;5.95;;;1.90;;
47960;SDS011;33721;48.852;9.936;2022-09-27T05:47:18;6.47;;;2.10;;
47960;SDS011;33721;48.852;9.936;2022-09-27T05:49:44;5.57;;;1.90;;
47960;SDS011;33721;48.852;9.936;2022-09-27T05:52:10;7.40;;;2.30;;
47960;SDS011;33721;48.852;9.936;2022-09-27T05:54:35;9.57;;;2.17;;
47960;SDS011;33721;48.852;9.936;2022-09-27T05:57:01;7.13;;;2.67;;
47960;SDS011;33721;48.852;9.936;2022-09-27T05:59:27;10.43;;;2.42;;
47960;SDS011;33721;48.852;9.936;2022-09-27T06:01:53;16.98;;;2.88;;
47960;SDS011;33721;48.852;9.936;2022-09-27T06:04:19;6.93;;;2.35;;
47960;SDS011;33721;48.852;9.936;2022-09-27T06:06:45;5.60;;;2.30;;
47960;SDS011;33721;48.852;9.936;2022-09-27T06:09:12;4.30;;;1.98;;
47960;SDS011;33721;48.852;9.936;2022-09-27T06:11:39;7.30;;;2.13;;
47960;SDS011;33721;48.852;9.936;2022-09-27T06:14:05;5.03;;;1.98;;
47960;SDS011;33721;48.852;9.936;2022-09-27T06:16:31;5.45;;;2.20;;
47960;SDS011;33721;48.852;9.936;2022-09-27T06:18:57;6.07;;;1.90;;
47960;SDS011;33721;48.852;9.936;2022-09-27T06:21:22;5.93;;;2.03;;
47960;SDS011;33721;48.852;9.936;2022-09-27T06:23:48;7.10;;;2.10;;
47960;SDS011;33721;48.852;9.936;2022-09-27T06:26:14;4.00;;;1.92;;
47960;SDS011;33721;48.852;9.936;2022-09-27T06:28:40;4.32;;;1.50;;
47960;SDS011;33721;48.852;9.936;2022-09-27T06:31:06;4.05;;;1.30;;
47960;SDS011;33721;48.852;9.936;2022-09-27T06:33:33;2.60;;;1.30;;
47960;SDS011;33721;48.852;9.936;2022-09-27T06:36:06;4.85;;;1.33;;
47960;SDS011;33721;48.852;9.936;2022-09-27T06:38:32;6.35;;;1.42;;
47960;SDS011;33721;48.852;9.936;2022-09-27T06:41:02;3.70;;;1.17;;
47960;SDS011;33721;48.852;9.936;2022-09-27T06:43:30;5.95;;;1.42;;
47960;SDS011;33721;48.852;9.936;2022-09-27T06:46:00;4.07;;;1.30;;
47960;SDS011;33721;48.852;9.936;2022-09-27T06:48:30;3.33;;;1.10;;
47960;SDS011;33721;48.852;9.936;2022-09-27T06:51:01;5.22;;;2.00;;
47960;SDS011;33721;48.852;9.936;2022-09-27T06:53:27;2.80;;;1.40;;
47960;SDS011;33721;48.852;9.936;2022-09-27T06:55:56;4.43;;;1.70;;
47960;SDS011;33721;48.852;9.936;2022-09-27T06:58:26;5.15;;;1.80;;
47960;SDS011;33721;48.852;9.936;2022-09-27T07:01:13;6.40;;;1.95;;
47960;SDS011;33721;48.852;9.936;2022-09-27T07:03:39;3.45;;;1.38;;
47960;SDS011;33721;48.852;9.936;2022-09-27T07:06:10;4.40;;;1.83;;
47960;SDS011;33721;48.852;9.936;2022-09-27T07:08:40;4.90;;;1.70;;
47960;SDS011;33721;48.852;9.936;2022-09-27T07:11:06;4.93;;;1.67;;
47960;SDS011;33721;48.852;9.936;2022-09-27T07:13:33;5.57;;;1.55;;
47960;SDS011;33721;48.852;9.936;2022-09-27T07:16:01;5.05;;;1.52;;
47960;SDS011;33721;48.852;9.936;2022-09-27T07:18:27;4.47;;;1.80;;
47960;SDS011;33721;48.852;9.936;2022-09-27T07:20:55;5.20;;;1.90;;
47960;SDS011;33721;48.852;9.936;2022-09-27T07:23:24;7.95;;;1.80;;
47960;SDS011;33721;48.852;9.936;2022-09-27T07:25:50;4.07;;;2.00;;
47960;SDS011;33721;48.852;9.936;2022-09-27T07:28:17;4.57;;;2.20;;
47960;SDS011;33721;48.852;9.936;2022-09-27T07:30:44;3.30;;;1.70;;
47960;SDS011;33721;48.852;9.936;2022-09-27T07:33:10;6.10;;;1.75;;
47960;SDS011;33721;48.852;9.936;2022-09-27T07:35:40;4.03;;;1.80;;
47960;SDS011;33721;48.852;9.936;2022-09-27T07:38:08;4.85;;;1.83;;
47960;SDS011;33721;48.852;9.936;2022-09-27T07:40:37;4.75;;;1.40;;
47960;SDS011;33721;48.852;9.936;2022-09-27T07:43:03;5.60;;;1.20;;
47960;SDS011;33721;48.852;9.936;2022-09-27T07:45:29;2.85;;;1.00;;
47960;SDS011;33721;48.852;9.936;2022-09-27T07:47:55;2.22;;;1.10;;
47960;SDS011;33721;48.852;9.936;2022-09-27T07:50:21;2.58;;;1.10;;
47960;SDS011;33721;48.852;9.936;2022-09-27T07:52:47;1.63;;;0.80;;
47960;SDS011;33721;48.852;9.936;2022-09-27T07:55:15;2.30;;;0.98;;
47960;SDS011;33721;48.852;9.936;2022-09-27T07:57:42;5.63;;;0.75;;
47960;SDS011;33721;48.852;9.936;2022-09-27T08:00:10;5.57;;;0.80;;
47960;SDS011;33721;48.852;9.936;2022-09-27T08:02:39;1.65;;;0.80;;
47960;SDS011;33721;48.852;9.936;2022-09-27T08:05:05;5.13;;;1.02;;
47960;SDS011;33721;48.852;9.936;2022-09-27T08:07:31;3.03;;;0.70;;
47960;SDS011;33721;48.852;9.936;2022-09-27T08:09:57;0.75;;;0.45;;
47960;SDS011;33721;48.852;9.936;2022-09-27T08:12:23;1.52;;;0.60;;
47960;SDS011;33721;48.852;9.936;2022-09-27T08:14:49;1.15;;;0.43;;
47960;SDS011;33721;48.852;9.936;2022-09-27T08:17:16;2.05;;;0.60;;
47960;SDS011;33721;48.852;9.936;2022-09-27T08:19:43;1.00;;;0.40;;
47960;SDS011;33721;48.852;9.936;2022-09-27T08:22:12;2.38;;;0.47;;
47960;SDS011;33721;48.852;9.936;2022-09-27T08:24:38;0.80;;;0.38;;
47960;SDS011;33721;48.852;9.936;2022-09-27T08:27:04;3.08;;;0.43;;
47960;SDS011;33721;48.852;9.936;2022-09-27T08:29:33;1.15;;;0.60;;
47960;SDS011;33721;48.852;9.936;2022-09-27T08:31:59;1.23;;;0.40;;
47960;SDS011;33721;48.852;9.936;2022-09-27T08:34:25;4.35;;;0.70;;
47960;SDS011;33721;48.852;9.936;2022-09-27T08:36:53;1.67;;;0.52;;
47960;SDS011;33721;48.852;9.936;2022-09-27T08:39:20;4.65;;;0.55;;
47960;SDS011;33721;48.852;9.936;2022-09-27T08:49:50;1.58;;;0.63;;
47960;SDS011;33721;48.852;9.936;2022-09-27T08:52:28;0.93;;;0.40;;
47960;SDS011;33721;48.852;9.936;2022-09-27T08:55:08;1.75;;;0.70;;
47960;SDS011;33721;48.852;9.936;2022-09-27T08:57:44;2.47;;;1.00;;
47960;SDS011;33721;48.852;9.936;2022-09-27T09:00:17;1.75;;;0.85;;
47960;SDS011;33721;48.852;9.936;2022-09-27T09:02:43;1.70;;;0.90;;
47960;SDS011;33721;48.852;9.936;2022-09-27T09:05:27;2.00;;;1.00;;
47960;SDS011;33721;48.852;9.936;2022-09-27T09:08:05;1.98;;;1.08;;
47960;SDS011;33721;48.852;9.936;2022-09-27T09:19:40;2.95;;;1.58;;
47960;SDS011;33721;48.852;9.936;2022-09-27T09:22:32;3.63;;;1.25;;
47960;SDS011;33721;48.852;9.936;2022-09-27T09:38:56;3.58;;;1.45;;
47960;SDS011;33721;48.852;9.936;2022-09-27T09:41:41;3.65;;;1.13;;
47960;SDS011;33721;48.852;9.936;2022-09-27T09:44:20;3.28;;;1.50;;
47960;SDS011;33721;48.852;9.936;2022-09-27T09:46:52;2.03;;;1.02;;
47960;SDS011;33721;48.852;9.936;2022-09-27T09:51:51;4.75;;;1.40;;
47960;SDS011;33721;48.852;9.936;2022-09-27T09:54:26;3.42;;;1.30;;
47960;SDS011;33721;48.852;9.936;2022-09-27T10:02:37;3.05;;;0.93;;
47960;SDS011;33721;48.852;9.936;2022-09-27T10:05:05;3.92;;;0.90;;
47960;SDS011;33721;48.852;9.936;2022-09-27T10:07:32;5.97;;;1.25;;
47960;SDS011;33721;48.852;9.936;2022-09-27T10:09:59;4.32;;;1.30;;
47960;SDS011;33721;48.852;9.936;2022-09-27T10:12:26;4.38;;;1.30;;
47960;SDS011;33721;48.852;9.936;2022-09-27T10:14:53;4.53;;;1.60;;
47960;SDS011;33721;48.852;9.936;2022-09-27T10:17:24;3.80;;;2.00;;
47960;SDS011;33721;48.852;9.936;2022-09-27T10:19:57;4.85;;;1.70;;
47960;SDS011;33721;48.852;9.936;2022-09-27T10:22:34;2.20;;;1.38;;
47960;SDS011;33721;48.852;9.936;2022-09-27T10:25:04;3.60;;;1.25;;
47960;SDS011;33721;48.852;9.936;2022-09-27T10:30:03;7.20;;;1.45;;
47960;SDS011;33721;48.852;9.936;2022-09-27T10:32:31;4.53;;;1.60;;
47960;SDS011;33721;48.852;9.936;2022-09-27T10:35:31;3.35;;;1.60;;
47960;SDS011;33721;48.852;9.936;2022-09-27T10:40:46;6.38;;;1.73;;
47960;SDS011;33721;48.852;9.936;2022-09-27T10:48:27;3.45;;;1.42;;
47960;SDS011;33721;48.852;9.936;2022-09-27T10:50:57;5.65;;;1.63;;
47960;SDS011;33721;48.852;9.936;2022-09-27T10:53:25;4.85;;;1.52;;
47960;SDS011;33721;48.852;9.936;2022-09-27T10:55:53;5.47;;;1.63;;
47960;SDS011;33721;48.852;9.936;2022-09-27T10:58:38;6.65;;;1.70;;
47960;SDS011;33721;48.852;9.936;2022-09-27T11:01:07;7.70;;;2.00;;
47960;SDS011;33721;48.852;9.936;2022-09-27T11:03:36;5.13;;;1.42;;
47960;SDS011;33721;48.852;9.936;2022-09-27T11:06:44;5.28;;;1.40;;
47960;SDS011;33721;48.852;9.936;2022-09-27T11:09:20;4.93;;;1.50;;
47960;SDS011;33721;48.852;9.936;2022-09-27T11:12:09;5.28;;;1.30;;
47960;SDS011;33721;48.852;9.936;2022-09-27T11:14:37;2.55;;;1.38;;
47960;SDS011;33721;48.852;9.936;2022-09-27T11:19:54;1.88;;;0.90;;
47960;SDS011;33721;48.852;9.936;2022-09-27T11:25:14;3.35;;;1.27;;
47960;SDS011;33721;48.852;9.936;2022-09-27T11:30:20;3.35;;;1.15;;
47960;SDS011;33721;48.852;9.936;2022-09-27T11:35:55;4.13;;;1.30;;
47960;SDS011;33721;48.852;9.936;2022-09-27T11:41:19;2.45;;;1.30;;
47960;SDS011;33721;48.852;9.936;2022-09-27T11:44:08;3.47;;;1.30;;
47960;SDS011;33721;48.852;9.936;2022-09-27T11:46:45;3.67;;;1.40;;
47960;SDS011;33721;48.852;9.936;2022-09-27T12:10:11;2.75;;;1.38;;
47960;SDS011;33721;48.852;9.936;2022-09-27T12:12:41;3.92;;;1.90;;
47960;SDS011;33721;48.852;9.936;2022-09-27T12:15:19;3.47;;;1.30;;
47960;SDS011;33721;48.852;9.936;2022-09-27T12:17:49;3.90;;;1.48;;
47960;SDS011;33721;48.852;9.936;2022-09-27T12:20:20;4.20;;;1.55;;
47960;SDS011;33721;48.852;9.936;2022-09-27T12:22:52;3.78;;;1.73;;
47960;SDS011;33721;48.852;9.936;2022-09-27T12:25:21;5.10;;;1.92;;
47960;SDS011;33721;48.852;9.936;2022-09-27T12:27:50;10.05;;;1.95;;
47960;SDS011;33721;48.852;9.936;2022-09-27T12:30:37;3.85;;;1.55;;
47960;SDS011;33721;48.852;9.936;2022-09-27T12:33:22;8.27;;;2.90;;
47960;SDS011;33721;48.852;9.936;2022-09-27T12:35:53;3.97;;;1.88;;
47960;SDS011;33721;48.852;9.936;2022-09-27T12:41:10;5.45;;;1.70;;
47960;SDS011;33721;48.852;9.936;2022-09-27T12:43:40;4.35;;;1.73;;
47960;SDS011;33721;48.852;9.936;2022-09-27T12:51:14;3.33;;;1.13;;
47960;SDS011;33721;48.852;9.936;2022-09-27T12:57:09;1.30;;;0.43;;
47960;SDS011;33721;48.852;9.936;2022-09-27T13:05:11;5.32;;;2.03;;
47960;SDS011;33721;48.852;9.936;2022-09-27T13:13:27;1.00;;;0.28;;
47960;SDS011;33721;48.852;9.936;2022-09-27T13:15:57;2.10;;;0.20;;
47960;SDS011;33721;48.852;9.936;2022-09-27T13:21:01;1.58;;;0.40;;
47960;SDS011;33721;48.852;9.936;2022-09-27T13:25:55;1.77;;;0.50;;
47960;SDS011;33721;48.852;9.936;2022-09-27T13:30:59;2.60;;;0.40;;
47960;SDS011;33721;48.852;9.936;2022-09-27T13:33:31;1.05;;;0.60;;
47960;SDS011;33721;48.852;9.936;2022-09-27T13:46:51;2.42;;;0.50;;
47960;SDS011;33721;48.852;9.936;2022-09-27T13:52:32;1.27;;;0.43;;
47960;SDS011;33721;48.852;9.936;2022-09-27T13:55:02;1.40;;;0.40;;
47960;SDS011;33721;48.852;9.936;2022-09-27T13:57:59;1.35;;;0.50;;
47960;SDS011;33721;48.852;9.936;2022-09-27T14:00:31;1.65;;;0.75;;
47960;SDS011;33721;48.852;9.936;2022-09-27T14:05:40;1.60;;;0.70;;
47960;SDS011;33721;48.852;9.936;2022-09-27T14:08:19;1.48;;;0.70;;
47960;SDS011;33721;48.852;9.936;2022-09-27T14:10:53;1.88;;;0.63;;
47960;SDS011;33721;48.852;9.936;2022-09-27T14:13:20;2.88;;;0.90;;
47960;SDS011;33721;48.852;9.936;2022-09-27T14:15:49;1.25;;;0.50;;
47960;SDS011;33721;48.852;9.936;2022-09-27T14:18:16;1.13;;;0.50;;
47960;SDS011;33721;48.852;9.936;2022-09-27T14:20:46;1.00;;;0.50;;
47960;SDS011;33721;48.852;9.936;2022-09-27T14:25:46;1.50;;;0.70;;
47960;SDS011;33721;48.852;9.936;2022-09-27T14:28:22;1.75;;;0.68;;
47960;SDS011;33721;48.852;9.936;2022-09-27T14:31:09;4.82;;;0.93;;
47960;SDS011;33721;48.852;9.936;2022-09-27T14:33:41;1.55;;;0.90;;
47960;SDS011;33721;48.852;9.936;2022-09-27T14:36:10;2.05;;;0.82;;
47960;SDS011;33721;48.852;9.936;2022-09-27T14:39:20;1.70;;;0.75;;
47960;SDS011;33721;48.852;9.936;2022-09-27T14:41:57;4.25;;;1.80;;
47960;SDS011;33721;48.852;9.936;2022-09-27T14:47:08;2.35;;;1.00;;
47960;SDS011;33721;48.852;9.936;2022-09-27T14:49:49;3.20;;;1.00;;
47960;SDS011;33721;48.852;9.936;2022-09-27T14:52:18;1.65;;;0.60;;
47960;SDS011;33721;48.852;9.936;2022-09-27T14:55:00;2.05;;;0.82;;
47960;SDS011;33721;48.852;9.936;2022-09-27T14:57:30;2.30;;;0.50;;
47960;SDS011;33721;48.852;9.936;2022-09-27T15:00:20;2.90;;;0.90;;
47960;SDS011;33721;48.852;9.936;2022-09-27T15:03:00;1.75;;;0.68;;
47960;SDS011;33721;48.852;9.936;2022-09-27T15:05:29;1.85;;;0.68;;
47960;SDS011;33721;48.852;9.936;2022-09-27T15:07:57;1.38;;;0.65;;
47960;SDS011;33721;48.852;9.936;2022-09-27T15:10:26;1.10;;;0.50;;
47960;SDS011;33721;48.852;9.936;2022-09-27T15:12:57;1.00;;;0.50;;
47960;SDS011;33721;48.852;9.936;2022-09-27T15:15:35;2.25;;;0.60;;
47960;SDS011;33721;48.852;9.936;2022-09-27T15:18:27;5.63;;;0.70;;
47960;SDS011;33721;48.852;9.936;2022-09-27T15:21:05;1.30;;;0.75;;
47960;SDS011;33721;48.852;9.936;2022-09-27T15:23:36;1.95;;;0.52;;
47960;SDS011;33721;48.852;9.936;2022-09-27T15:26:14;0.90;;;0.60;;
47960;SDS011;33721;48.852;9.936;2022-09-27T15:28:46;2.40;;;0.77;;
47960;SDS011;33721;48.852;9.936;2022-09-27T15:31:14;1.02;;;0.70;;
47960;SDS011;33721;48.852;9.936;2022-09-27T15:33:40;2.03;;;1.02;;
47960;SDS011;33721;48.852;9.936;2022-09-27T15:36:10;3.53;;;1.10;;
47960;SDS011;33721;48.852;9.936;2022-09-27T15:38:38;1.40;;;0.80;;
47960;SDS011;33721;48.852;9.936;2022-09-27T15:43:48;2.83;;;0.73;;
47960;SDS011;33721;48.852;9.936;2022-09-27T15:51:44;1.92;;;0.93;;
47960;SDS011;33721;48.852;9.936;2022-09-27T15:54:10;6.05;;;1.13;;
47960;SDS011;33721;48.852;9.936;2022-09-27T15:56:38;2.90;;;1.30;;
47960;SDS011;33721;48.852;9.936;2022-09-27T15:59:04;4.05;;;1.17;;
47960;SDS011;33721;48.852;9.936;2022-09-27T16:01:31;1.90;;;1.00;;
47960;SDS011;33721;48.852;9.936;2022-09-27T16:03:58;2.60;;;1.17;;
47960;SDS011;33721;48.852;9.936;2022-09-27T16:06:25;2.92;;;0.95;;
47960;SDS011;33721;48.852;9.936;2022-09-27T16:08:52;1.92;;;1.00;;
47960;SDS011;33721;48.852;9.936;2022-09-27T16:11:18;3.38;;;1.10;;
47960;SDS011;33721;48.852;9.936;2022-09-27T16:13:44;2.85;;;1.40;;
47960;SDS011;33721;48.852;9.936;2022-09-27T16:16:16;1.88;;;1.08;;
47960;SDS011;33721;48.852;9.936;2022-09-27T16:18:43;1.75;;;1.00;;
47960;SDS011;33721;48.852;9.936;2022-09-27T16:21:09;3.05;;;1.58;;
47960;SDS011;33721;48.852;9.936;2022-09-27T16:23:35;3.20;;;1.50;;
47960;SDS011;33721;48.852;9.936;2022-09-27T16:26:01;4.03;;;1.80;;
47960;SDS011;33721;48.852;9.936;2022-09-27T16:28:27;3.33;;;1.58;;
47960;SDS011;33721;48.852;9.936;2022-09-27T16:30:52;4.22;;;1.90;;
47960;SDS011;33721;48.852;9.936;2022-09-27T16:33:18;2.80;;;1.33;;
47960;SDS011;33721;48.852;9.936;2022-09-27T16:35:44;6.18;;;2.15;;
47960;SDS011;33721;48.852;9.936;2022-09-27T16:38:09;4.28;;;2.10;;
47960;SDS011;33721;48.852;9.936;2022-09-27T16:40:35;5.53;;;2.22;;
47960;SDS011;33721;48.852;9.936;2022-09-27T16:43:01;5.45;;;2.47;;
47960;SDS011;33721;48.852;9.936;2022-09-27T16:45:31;5.75;;;2.00;;
47960;SDS011;33721;48.852;9.936;2022-09-27T16:48:00;3.78;;;1.92;;
47960;SDS011;33721;48.852;9.936;2022-09-27T16:50:26;7.18;;;2.17;;
47960;SDS011;33721;48.852;9.936;2022-09-27T16:53:10;3.97;;;1.95;;
47960;SDS011;33721;48.852;9.936;2022-09-27T16:55:36;3.72;;;1.70;;
47960;SDS011;33721;48.852;9.936;2022-09-27T16:58:02;4.05;;;1.70;;
47960;SDS011;33721;48.852;9.936;2022-09-27T17:00:29;4.00;;;2.03;;
47960;SDS011;33721;48.852;9.936;2022-09-27T17:02:57;4.60;;;2.13;;
47960;SDS011;33721;48.852;9.936;2022-09-27T17:05:23;4.97;;;2.10;;
47960;SDS011;33721;48.852;9.936;2022-09-27T17:07:49;4.20;;;2.05;;
47960;SDS011;33721;48.852;9.936;2022-09-27T17:10:16;4.97;;;2.10;;
47960;SDS011;33721;48.852;9.936;2022-09-27T17:12:46;3.43;;;1.97;;
47960;SDS011;33721;48.852;9.936;2022-09-27T17:15:12;5.65;;;2.72;;
47960;SDS011;33721;48.852;9.936;2022-09-27T17:17:39;6.07;;;2.15;;
47960;SDS011;33721;48.852;9.936;2022-09-27T17:20:04;4.82;;;2.35;;
47960;SDS011;33721;48.852;9.936;2022-09-27T17:22:30;4.38;;;2.58;;
47960;SDS011;33721;48.852;9.936;2022-09-27T17:24:56;4.03;;;2.10;;
47960;SDS011;33721;48.852;9.936;2022-09-27T17:27:22;10.43;;;2.83;;
47960;SDS011;33721;48.852;9.936;2022-09-27T17:29:51;4.80;;;2.72;;
47960;SDS011;33721;48.852;9.936;2022-09-27T17:32:16;4.22;;;2.42;;
47960;SDS011;33721;48.852;9.936;2022-09-27T17:34:48;9.55;;;3.00;;
47960;SDS011;33721;48.852;9.936;2022-09-27T17:37:14;5.80;;;3.15;;
47960;SDS011;33721;48.852;9.936;2022-09-27T17:39:40;6.50;;;2.85;;
47960;SDS011;33721;48.852;9.936;2022-09-27T17:42:06;6.53;;;2.80;;
47960;SDS011;33721;48.852;9.936;2022-09-27T17:44:32;5.80;;;3.03;;
47960;SDS011;33721;48.852;9.936;2022-09-27T17:46:58;5.60;;;2.47;;
47960;SDS011;33721;48.852;9.936;2022-09-27T17:49:42;6.22;;;2.45;;
47960;SDS011;33721;48.852;9.936;2022-09-27T17:52:26;5.93;;;2.55;;
47960;SDS011;33721;48.852;9.936;2022-09-27T17:54:52;4.90;;;2.25;;
47960;SDS011;33721;48.852;9.936;2022-09-27T17:57:20;5.90;;;2.38;;
47960;SDS011;33721;48.852;9.936;2022-09-27T17:59:45;6.22;;;2.65;;
47960;SDS011;33721;48.852;9.936;2022-09-27T18:02:11;5.75;;;2.38;;
47960;SDS011;33721;48.852;9.936;2022-09-27T18:04:37;8.65;;;2.50;;
47960;SDS011;33721;48.852;9.936;2022-09-27T18:07:03;5.65;;;2.22;;
47960;SDS011;33721;48.852;9.936;2022-09-27T18:09:29;5.28;;;2.38;;
47960;SDS011;33721;48.852;9.936;2022-09-27T18:11:54;4.65;;;2.20;;